Time;durP1;ratioP1;P1;durP2;ratioP2;P2;SDS_P1;SDS_P2;PMS_P1;PMS_P2;Temp;Humidity;BMP_temperature;BMP_pressure;BME280_temperature;BME280_humidity;BME280_pressure;Samples;Min_cycle;Max_cycle;Signal;HPM_P1;HPM_P2
2021/03/21 00:00:15;;;;;;;3.20;2.78;;;;;;;4.37;100.00;101849.88;6174011;28;20065;-71
2021/03/21 00:03:17;;;;;;;3.67;2.80;;;;;;;4.47;100.00;101844.56;6174029;28;20504;-71
2021/03/21 00:06:19;;;;;;;4.57;3.20;;;;;;;4.41;100.00;101842.03;6174171;28;20098;-71
2021/03/21 00:09:19;;;;;;;4.00;3.17;;;;;;;4.30;100.00;101839.50;6174282;28;20518;-71
2021/03/21 00:12:20;;;;;;;7.22;3.60;;;;;;;4.37;100.00;101829.94;6183029;23;20043;-69
2021/03/21 00:15:22;;;;;;;6.85;3.65;;;;;;;4.25;100.00;101824.84;6148618;28;20055;-70
2021/03/21 00:18:25;;;;;;;6.03;3.72;;;;;;;4.30;100.00;101821.31;6149167;28;20055;-70
2021/03/21 00:21:27;;;;;;;5.93;4.50;;;;;;;4.31;100.00;101815.25;6149545;28;20118;-69
2021/03/21 00:24:28;;;;;;;4.97;3.53;;;;;;;4.17;100.00;101814.50;6150180;28;20055;-70
2021/03/21 00:27:29;;;;;;;6.25;4.65;;;;;;;4.15;100.00;101810.19;6150105;28;20079;-70
2021/03/21 00:30:35;;;;;;;8.77;4.93;;;;;;;4.22;100.00;101809.25;6149006;28;20071;-69
2021/03/21 00:33:37;;;;;;;12.80;4.97;;;;;;;4.20;100.00;101814.47;6149533;28;20055;-70
2021/03/21 00:36:39;;;;;;;6.35;4.20;;;;;;;4.22;100.00;101804.03;6149667;28;20516;-70
2021/03/21 00:39:40;;;;;;;6.82;4.85;;;;;;;4.20;100.00;101809.28;6149787;28;20051;-69
2021/03/21 00:42:40;;;;;;;8.00;5.35;;;;;;;4.15;100.00;101799.78;6149480;28;20058;-70
2021/03/21 00:45:42;;;;;;;12.25;6.30;;;;;;;4.16;100.00;101791.97;6149654;28;20057;-70
2021/03/21 00:48:45;;;;;;;8.32;6.68;;;;;;;4.19;100.00;101793.69;6149598;28;20066;-70
2021/03/21 00:51:46;;;;;;;16.20;8.55;;;;;;;4.18;100.00;101778.94;6149329;28;20504;-69
2021/03/21 00:54:47;;;;;;;13.45;9.00;;;;;;;4.45;100.00;101767.34;6149587;28;20417;-70
2021/03/21 00:57:48;;;;;;;14.02;9.82;;;;;;;4.26;100.00;101766.72;6149759;28;20062;-70
2021/03/21 01:00:52;;;;;;;13.23;10.00;;;;;;;4.40;100.00;101762.22;6149752;28;20048;-70
2021/03/21 01:03:53;;;;;;;18.15;11.45;;;;;;;4.27;100.00;101760.63;6149391;28;20043;-70
2021/03/21 01:06:55;;;;;;;14.88;10.80;;;;;;;4.29;100.00;101748.47;6153528;28;20043;-70
2021/03/21 01:09:56;;;;;;;17.52;12.45;;;;;;;4.21;100.00;101739.88;6154213;28;20058;-70
2021/03/21 01:12:58;;;;;;;19.92;13.55;;;;;;;4.20;100.00;101731.22;6153961;28;20083;-70
2021/03/21 01:16:00;;;;;;;18.25;12.10;;;;;;;4.44;100.00;101727.47;6154112;28;20043;-70
2021/03/21 01:19:01;;;;;;;16.90;11.80;;;;;;;4.47;100.00;101718.78;6154324;28;20062;-70
2021/03/21 01:22:04;;;;;;;16.80;11.45;;;;;;;4.46;100.00;101712.72;6153725;28;20504;-70
2021/03/21 01:25:06;;;;;;;15.05;10.40;;;;;;;4.47;100.00;101705.75;6154204;28;20055;-70
2021/03/21 01:28:20;;;;;;;18.45;10.77;;;;;;;4.42;100.00;101705.81;6153979;28;20130;-70
2021/03/21 01:31:22;;;;;;;18.50;11.77;;;;;;;4.54;100.00;101700.47;6153560;28;20419;-70
2021/03/21 01:34:23;;;;;;;20.67;12.38;;;;;;;4.50;100.00;101690.97;6153894;28;20055;-70
2021/03/21 01:37:25;;;;;;;18.27;12.77;;;;;;;4.41;100.00;101687.63;6153631;28;20492;-69
2021/03/21 01:40:26;;;;;;;19.08;11.77;;;;;;;4.53;100.00;101684.84;6153796;28;20062;-70
2021/03/21 01:43:30;;;;;;;18.52;12.35;;;;;;;4.46;100.00;101676.28;6153185;28;20500;-70
2021/03/21 01:46:55;;;;;;;20.23;13.32;;;;;;;4.52;100.00;101675.31;6153615;28;20082;-70
2021/03/21 01:49:57;;;;;;;19.92;14.10;;;;;;;4.42;100.00;101674.59;6153373;28;20563;-70
2021/03/21 01:52:58;;;;;;;18.55;12.63;;;;;;;4.62;100.00;101665.63;6153206;28;20062;-69
2021/03/21 01:56:00;;;;;;;16.65;11.45;;;;;;;4.62;100.00;101656.09;6153189;28;20059;-70
2021/03/21 01:59:06;;;;;;;16.65;10.80;;;;;;;4.50;100.00;101661.47;6153327;28;20051;-69
2021/03/21 02:02:10;;;;;;;17.60;10.73;;;;;;;4.58;100.00;101646.59;6152891;29;20066;-70
2021/03/21 02:05:12;;;;;;;15.48;10.80;;;;;;;4.59;100.00;101645.75;6153226;28;20061;-70
2021/03/21 02:08:32;;;;;;;14.88;10.45;;;;;;;4.52;100.00;101634.53;6152861;28;20493;-70
2021/03/21 02:11:42;;;;;;;16.45;11.32;;;;;;;4.49;100.00;101637.16;6152669;28;20055;-70
2021/03/21 02:14:51;;;;;;;16.77;11.10;;;;;;;4.60;100.00;101621.41;6152920;28;20456;-70
2021/03/21 02:17:57;;;;;;;15.25;10.90;;;;;;;4.57;100.00;101617.09;6152538;28;20055;-69
2021/03/21 02:21:12;;;;;;;16.83;10.82;;;;;;;4.53;100.00;101625.84;6152357;28;20066;-70
2021/03/21 02:24:37;;;;;;;19.65;12.73;;;;;;;4.50;100.00;101627.66;6152862;28;20055;-70
2021/03/21 02:28:14;;;;;;;23.23;14.60;;;;;;;4.55;100.00;101631.91;6152506;28;20424;-70
2021/03/21 02:31:22;;;;;;;24.60;15.60;;;;;;;4.62;100.00;101616.19;6149780;28;20862;-69
2021/03/21 02:34:31;;;;;;;23.42;15.23;;;;;;;4.64;100.00;101623.09;6152656;28;20051;-69
2021/03/21 02:37:39;;;;;;;25.67;16.08;;;;;;;4.52;100.00;101610.25;6152325;28;20055;-68
2021/03/21 02:40:43;;;;;;;25.33;16.45;;;;;;;4.49;100.00;101615.50;6152556;28;20058;-68
2021/03/21 02:43:49;;;;;;;25.40;16.42;;;;;;;4.53;100.00;101618.03;6152095;28;20055;-68
2021/03/21 02:46:55;;;;;;;24.42;15.85;;;;;;;4.61;100.00;101612.72;6152394;28;20051;-69
2021/03/21 02:50:00;;;;;;;25.85;14.77;;;;;;;4.58;100.00;101611.00;6152164;28;20047;-68
2021/03/21 02:53:06;;;;;;;24.40;14.90;;;;;;;4.66;100.00;101604.84;6151937;28;20051;-68
2021/03/21 02:56:10;;;;;;;20.83;13.95;;;;;;;4.70;100.00;101596.97;6151967;28;20055;-68
2021/03/21 02:59:14;;;;;;;19.77;13.68;;;;;;;4.61;100.00;101588.44;6152007;28;20058;-69
2021/03/21 03:02:20;;;;;;;17.35;11.80;;;;;;;4.64;100.00;101578.84;6151498;28;20405;-69
2021/03/21 03:05:26;;;;;;;17.60;11.75;;;;;;;4.73;100.00;101583.06;6151713;28;20508;-69
2021/03/21 03:08:35;;;;;;;19.65;11.38;;;;;;;4.75;100.00;101582.13;6151670;28;20048;-69
2021/03/21 03:11:42;;;;;;;18.83;11.30;;;;;;;4.65;100.00;101580.56;6151186;28;20421;-69
2021/03/21 03:14:44;;;;;;;20.33;11.43;;;;;;;4.70;100.00;101580.47;6151638;28;20144;-68
2021/03/21 03:17:53;;;;;;;20.17;12.32;;;;;;;4.68;100.00;101569.22;6151189;28;20047;-68
2021/03/21 03:21:03;;;;;;;20.95;11.20;;;;;;;4.91;100.00;101571.47;6151175;28;20058;-68
2021/03/21 03:24:10;;;;;;;13.77;9.52;;;;;;;4.81;100.00;101562.94;6151340;28;20457;-69
2021/03/21 03:27:14;;;;;;;16.25;10.80;;;;;;;4.77;100.00;101563.91;6150694;28;20555;-69
2021/03/21 03:30:18;;;;;;;14.45;9.55;;;;;;;4.84;100.00;101563.75;6151155;28;20055;-69
2021/03/21 03:33:22;;;;;;;14.25;10.05;;;;;;;4.83;100.00;101561.19;6150984;28;20055;-69
2021/03/21 03:36:24;;;;;;;16.67;10.25;;;;;;;4.88;100.00;101558.50;6151254;28;20051;-69
2021/03/21 03:39:25;;;;;;;15.57;9.35;;;;;;;4.93;100.00;101552.31;6150953;28;20051;-69
2021/03/21 03:42:38;;;;;;;14.10;9.20;;;;;;;4.86;100.00;101542.03;6150647;28;20464;-69
2021/03/21 03:45:50;;;;;;;14.73;9.00;;;;;;;4.81;100.00;101553.41;6150940;28;20051;-69
2021/03/21 03:49:02;;;;;;;14.38;9.63;;;;;;;4.95;100.00;101541.88;6151033;28;20047;-69
2021/03/21 03:52:23;;;;;;;14.40;8.93;;;;;;;4.80;100.00;101546.44;6150351;28;20047;-69
2021/03/21 03:55:29;;;;;;;12.65;8.80;;;;;;;4.87;100.00;101548.97;6150841;28;20128;-69
2021/03/21 03:58:37;;;;;;;16.13;8.82;;;;;;;4.78;100.00;101544.78;6150669;28;20051;-70
2021/03/21 04:01:47;;;;;;;11.52;8.05;;;;;;;4.93;100.00;101538.44;6150398;28;20062;-69
2021/03/21 04:04:55;;;;;;;13.15;8.00;;;;;;;4.82;100.00;101528.22;6150463;28;20059;-69
2021/03/21 04:08:01;;;;;;;13.48;6.75;;;;;;;4.97;100.00;101535.75;6150480;28;20058;-69
2021/03/21 04:11:10;;;;;;;9.60;5.72;;;;;;;5.01;100.00;101529.59;6149988;28;20062;-70
2021/03/21 04:14:17;;;;;;;12.48;6.65;;;;;;;5.08;100.00;101530.34;6150406;28;20062;-69
2021/03/21 04:17:23;;;;;;;7.95;5.18;;;;;;;5.06;100.00;101530.38;6150251;28;20055;-69
2021/03/21 04:20:30;;;;;;;8.90;4.30;;;;;;;5.17;100.00;101522.34;6150251;28;20102;-69
2021/03/21 04:23:36;;;;;;;4.63;3.42;;;;;;;5.01;100.00;101515.72;6149825;28;20055;-69
2021/03/21 04:26:40;;;;;;;7.88;3.88;;;;;;;5.15;100.00;101515.47;6150223;28;20055;-69
2021/03/21 04:29:48;;;;;;;7.45;3.80;;;;;;;5.08;100.00;101502.53;6149966;28;20055;-69
2021/03/21 04:32:52;;;;;;;8.90;3.67;;;;;;;4.84;100.00;101496.03;6149691;28;20058;-69
2021/03/21 04:35:58;;;;;;;6.07;3.17;;;;;;;5.03;100.00;101491.34;6149857;28;20105;-68
2021/03/21 04:39:03;;;;;;;7.25;3.53;;;;;;;4.82;100.00;101489.16;6149994;28;20047;-69
2021/03/21 04:42:09;;;;;;;4.82;2.60;;;;;;;4.85;100.00;101483.88;6149573;28;20059;-69
2021/03/21 04:45:13;;;;;;;8.57;3.40;;;;;;;4.75;100.00;101488.38;6150045;28;20062;-69
2021/03/21 04:48:18;;;;;;;5.25;3.10;;;;;;;5.03;100.00;101486.16;6149681;28;20090;-69
2021/03/21 04:51:25;;;;;;;16.45;5.88;;;;;;;4.86;100.00;101484.72;6149583;28;20061;-69
2021/03/21 04:54:31;;;;;;;10.02;2.90;;;;;;;4.94;100.00;101469.84;6149720;28;20078;-69
2021/03/21 04:57:37;;;;;;;8.43;2.72;;;;;;;4.93;100.00;101457.69;6149906;28;20180;-69
2021/03/21 05:00:43;;;;;;;12.60;2.60;;;;;;;4.86;100.00;101459.56;6149584;28;20062;-69
2021/03/21 05:03:47;;;;;;;12.43;3.13;;;;;;;4.95;100.00;101459.41;6149247;28;20519;-68
2021/03/21 05:06:53;;;;;;;8.25;2.75;;;;;;;4.95;100.00;101463.72;6149266;28;20103;-69
2021/03/21 05:09:58;;;;;;;11.68;3.20;;;;;;;4.94;100.00;101456.81;6148822;28;20412;-69
2021/03/21 05:13:05;;;;;;;11.48;3.20;;;;;;;4.83;100.00;101470.91;6148327;28;20058;-69
2021/03/21 05:16:13;;;;;;;7.55;2.90;;;;;;;4.86;100.00;101469.09;6149222;28;20101;-68
2021/03/21 05:19:21;;;;;;;11.00;3.47;;;;;;;4.76;100.00;101471.03;6148888;28;20077;-68
2021/03/21 05:22:34;;;;;;;15.35;3.83;;;;;;;4.79;100.00;101469.22;6148344;28;20047;-69
2021/03/21 05:25:41;;;;;;;8.77;3.40;;;;;;;4.75;100.00;101480.56;6149197;28;20106;-69
2021/03/21 05:28:51;;;;;;;10.88;3.80;;;;;;;4.78;100.00;101487.50;6149156;28;20047;-70
2021/03/21 05:31:52;;;;;;;14.80;3.75;;;;;;;4.84;100.00;101487.38;6148842;29;20058;-70
2021/03/21 05:34:56;;;;;;;11.85;4.45;;;;;;;4.65;100.00;101499.84;6149188;28;20102;-70
2021/03/21 05:38:11;;;;;;;13.60;4.20;;;;;;;4.87;100.00;101500.34;6149466;28;20047;-69
2021/03/21 05:41:51;;;;;;;15.80;4.70;;;;;;;4.78;100.00;101510.94;6148929;28;20652;-68
2021/03/21 05:45:05;;;;;;;;;;;;;;;4.79;100.00;101521.31;6149648;28;20051;-70
2021/03/21 05:48:27;;;;;;;9.43;3.17;;;;;;;4.74;100.00;101517.91;6149079;28;19977;-69
2021/03/21 05:51:59;;;;;;;8.25;3.30;;;;;;;4.77;100.00;101507.47;6150242;28;20066;-68
2021/03/21 05:55:26;;;;;;;14.23;4.05;;;;;;;4.81;100.00;101501.31;6153418;28;20071;-68
2021/03/21 05:58:39;;;;;;;7.90;2.50;;;;;;;4.82;100.00;101502.19;6153453;28;20043;-69
2021/03/21 06:02:07;;;;;;;17.70;5.47;;;;;;;4.86;100.00;101503.84;6153015;28;20051;-69
2021/03/21 06:05:47;;;;;;;11.20;2.45;;;;;;;4.83;100.00;101507.34;6153069;28;20059;-68
2021/03/21 06:08:59;;;;;;;7.45;2.47;;;;;;;5.01;100.00;101495.75;6151555;29;20055;-69
2021/03/21 06:12:15;;;;;;;18.00;2.45;;;;;;;4.95;100.00;101502.78;6183465;23;20054;-73
2021/03/21 06:15:52;;;;;;;14.18;2.50;;;;;;;4.71;100.00;101517.09;6199750;28;20104;-75
2021/03/21 06:19:06;;;;;;;13.73;2.53;;;;;;;4.80;100.00;101524.75;6199879;28;20057;-75
2021/03/21 06:22:26;;;;;;;20.70;2.90;;;;;;;4.77;99.79;101530.91;6199708;28;20046;-75
2021/03/21 06:25:45;;;;;;;22.55;2.72;;;;;;;4.83;98.37;101524.72;6200992;28;20054;-75
2021/03/21 06:29:08;;;;;;;22.10;2.55;;;;;;;4.89;96.63;101526.34;6200652;28;20531;-73
2021/03/21 06:32:35;;;;;;;19.98;2.55;;;;;;;5.13;93.86;101536.31;6199364;28;20113;-73
2021/03/21 06:35:51;;;;;;;22.45;3.03;;;;;;;5.03;93.98;101537.38;6181632;28;20072;-75
2021/03/21 06:39:10;;;;;;;21.88;2.90;;;;;;;5.04;93.26;101532.16;6196203;28;20121;-74
2021/03/21 06:42:32;;;;;;;19.02;2.92;;;;;;;5.09;92.49;101540.75;6198686;28;20050;-75
2021/03/21 06:45:59;;;;;;;21.70;2.90;;;;;;;5.06;92.58;101543.41;6200285;28;20064;-74
2021/03/21 06:49:31;;;;;;;25.73;2.63;;;;;;;5.06;94.08;101552.97;6200366;28;20046;-73
2021/03/21 06:52:42;;;;;;;25.45;2.85;;;;;;;5.05;92.47;101559.06;6199618;28;20046;-75
2021/03/21 06:55:46;;;;;;;37.13;3.78;;;;;;;5.08;89.00;101566.81;6200074;28;20054;-74
2021/03/21 06:59:30;;;;;;;30.08;4.28;;;;;;;4.98;85.44;101568.72;6200096;28;20046;-73
2021/03/21 07:03:05;;;;;;;33.78;4.95;;;;;;;4.92;85.17;101553.22;6180548;28;20057;-76
2021/03/21 07:06:39;;;;;;;30.80;4.15;;;;;;;4.83;85.70;101562.03;6184966;28;20623;-75
2021/03/21 07:10:27;;;;;;;36.80;4.60;;;;;;;4.80;85.28;101569.03;6185775;28;20051;-75
2021/03/21 07:14:00;;;;;;;40.90;4.78;;;;;;;4.76;85.92;101567.34;6182110;28;20050;-74
2021/03/21 07:17:11;;;;;;;34.40;4.22;;;;;;;4.74;85.09;101579.56;6184886;28;20073;-75
2021/03/21 07:20:42;;;;;;;46.40;7.20;;;;;;;4.44;86.20;101581.72;6186564;28;20133;-75
2021/03/21 07:24:09;;;;;;;39.67;4.55;;;;;;;4.57;85.49;101593.69;6186424;28;20058;-74
2021/03/21 07:27:31;;;;;;;36.38;4.90;;;;;;;4.65;85.38;101584.91;6185861;28;20551;-74
2021/03/21 07:30:45;;;;;;;49.70;4.78;;;;;;;4.69;84.70;101610.88;6184481;28;20051;-74
2021/03/21 07:34:04;;;;;;;42.28;5.05;;;;;;;4.62;84.23;101604.03;6175220;28;20074;-74
2021/03/21 07:37:14;;;;;;;40.63;5.68;;;;;;;4.60;82.87;101590.19;6174783;28;20101;-73
2021/03/21 07:40:36;;;;;;;57.20;5.47;;;;;;;4.63;83.85;101594.47;6186423;28;20106;-74
2021/03/21 07:44:00;;;;;;;41.60;4.55;;;;;;;4.76;81.67;101598.59;6186083;28;20053;-74
2021/03/21 07:47:26;;;;;;;48.95;5.78;;;;;;;4.80;81.99;101587.25;6186537;28;20054;-74
2021/03/21 07:50:39;;;;;;;48.42;5.45;;;;;;;4.80;82.77;101603.75;6190812;28;20427;-72
2021/03/21 07:53:50;;;;;;;46.90;5.35;;;;;;;4.70;83.08;101598.72;6187861;28;20076;-75
2021/03/21 07:56:58;;;;;;;47.45;6.15;;;;;;;4.75;82.12;101597.75;6186492;28;20050;-75
2021/03/21 08:00:01;;;;;;;37.80;5.93;;;;;;;4.88;82.53;101579.34;6184403;28;20057;-75
2021/03/21 08:03:21;;;;;;;54.38;5.95;;;;;;;4.76;82.12;101583.84;6185164;28;20042;-74
2021/03/21 08:06:29;;;;;;;50.45;7.55;;;;;;;4.89;82.37;101583.66;6193460;28;20486;-75
2021/03/21 08:09:35;;;;;;;48.90;6.20;;;;;;;4.88;80.73;101576.72;6198590;28;20104;-74
2021/03/21 08:12:41;;;;;;;57.20;7.90;;;;;;;4.98;81.40;101579.16;6197951;28;20047;-74
2021/03/21 08:15:43;;;;;;;47.40;5.22;;;;;;;4.94;81.19;101567.06;6185815;28;20046;-74
2021/03/21 08:18:48;;;;;;;47.30;6.03;;;;;;;4.92;81.13;101568.84;6185099;28;20069;-74
2021/03/21 08:21:49;;;;;;;47.67;6.85;;;;;;;4.91;81.18;101558.47;6184419;28;20054;-74
2021/03/21 08:24:54;;;;;;;55.70;7.38;;;;;;;5.02;81.15;101559.13;6184142;28;20057;-73
2021/03/21 08:27:57;;;;;;;42.35;5.57;;;;;;;5.07;81.22;101539.91;6185568;28;20062;-71
2021/03/21 08:30:59;;;;;;;50.55;6.93;;;;;;;5.00;80.80;101533.09;6183012;28;20098;-75
2021/03/21 08:34:32;;;;;;;56.47;8.45;;;;;;;5.15;79.00;101525.91;6173899;28;20051;-75
2021/03/21 08:37:40;;;;;;;46.60;5.75;;;;;;;5.10;80.71;101533.78;6147418;28;20048;-74
2021/03/21 08:40:42;;;;;;;50.58;7.32;;;;;;;5.07;80.52;101534.69;6192278;28;20051;-74
2021/03/21 08:43:43;;;;;;;48.85;6.47;;;;;;;5.27;79.89;101544.78;6187554;28;20053;-74
2021/03/21 08:46:49;;;;;;;54.38;7.75;;;;;;;5.28;78.31;101553.44;6192786;28;20047;-74
2021/03/21 08:49:52;;;;;;;52.28;6.63;;;;;;;5.37;78.74;101545.47;6197660;28;20050;-74
2021/03/21 08:52:53;;;;;;;48.75;6.07;;;;;;;5.39;78.89;101561.06;6189404;28;20421;-74
2021/03/21 08:56:14;;;;;;;53.85;8.25;;;;;;;5.44;78.00;101575.72;6176444;28;20054;-75
2021/03/21 08:59:28;;;;;;;69.85;7.18;;;;;;;5.23;78.44;101573.53;6197763;28;20054;-75
2021/03/21 09:02:39;;;;;;;42.03;5.60;;;;;;;5.31;78.75;101577.72;6196538;28;20062;-74
2021/03/21 09:05:51;;;;;;;49.17;6.43;;;;;;;5.39;79.42;101569.72;6197564;28;20053;-74
2021/03/21 09:08:52;;;;;;;44.35;6.20;;;;;;;5.37;78.96;101581.09;6194280;28;20046;-74
2021/03/21 09:11:56;;;;;;;51.97;6.47;;;;;;;5.47;77.59;101575.66;6184618;28;20050;-74
2021/03/21 09:15:20;;;;;;;59.60;7.25;;;;;;;5.34;78.94;101584.59;6193912;28;20061;-74
2021/03/21 09:18:25;;;;;;;56.88;6.68;;;;;;;5.55;79.00;101578.13;6196991;28;20054;-74
2021/03/21 09:21:27;;;;;;;44.70;6.82;;;;;;;5.71;77.08;101574.31;6196736;28;20062;-73
2021/03/21 09:24:30;;;;;;;52.45;7.88;;;;;;;5.76;77.24;101577.69;6197224;28;20108;-75
2021/03/21 09:27:35;;;;;;;66.72;7.18;;;;;;;5.79;77.25;101576.78;6184542;28;20051;-73
2021/03/21 09:30:38;;;;;;;54.50;7.82;;;;;;;5.95;76.66;101583.47;6177862;28;20569;-75
2021/03/21 09:33:45;;;;;;;52.47;6.10;;;;;;;5.89;74.98;101593.97;6177023;28;20042;-72
2021/03/21 09:36:50;;;;;;;54.42;6.07;;;;;;;5.88;75.86;101600.09;6177761;28;20050;-75
2021/03/21 09:39:59;;;;;;;49.55;6.65;;;;;;;5.73;77.27;101606.47;6177409;28;20077;-75
2021/03/21 09:43:02;;;;;;;58.75;6.05;;;;;;;5.84;76.94;101601.88;6177584;28;20097;-74
2021/03/21 09:46:20;;;;;;;53.08;7.18;;;;;;;6.00;77.65;101607.69;6177589;28;20054;-75
2021/03/21 09:49:29;;;;;;;50.22;6.28;;;;;;;6.02;75.51;101590.25;6177502;28;20416;-74
2021/03/21 09:52:40;;;;;;;61.45;5.93;;;;;;;6.08;75.05;101597.94;6174913;28;20051;-75
2021/03/21 09:55:48;;;;;;;54.53;7.15;;;;;;;5.99;76.07;101610.31;6177004;28;20050;-73
2021/03/21 09:58:59;;;;;;;56.50;6.80;;;;;;;5.95;75.85;101604.31;6176991;28;20054;-75
2021/03/21 10:02:08;;;;;;;59.03;6.10;;;;;;;5.97;76.01;101606.91;6176534;28;20058;-75
2021/03/21 10:05:18;;;;;;;51.25;6.38;;;;;;;6.10;74.67;101617.03;6176722;28;20054;-75
2021/03/21 10:08:26;;;;;;;52.72;7.75;;;;;;;6.00;75.82;101619.88;6176890;28;20049;-75
2021/03/21 10:11:30;;;;;;;59.83;8.07;;;;;;;6.14;74.84;101623.06;6175555;28;20054;-75
2021/03/21 10:15:00;;;;;;;60.38;8.23;;;;;;;6.21;74.82;101627.25;6176687;28;20061;-75
2021/03/21 10:18:01;;;;;;;56.22;6.63;;;;;;;6.27;74.06;101623.69;6171348;28;20054;-74
2021/03/21 10:21:05;;;;;;;56.60;9.25;;;;;;;6.35;73.29;101627.81;6175661;28;20058;-73
2021/03/21 10:24:36;;;;;;;51.53;6.95;;;;;;;6.27;73.54;101628.91;6175845;28;20422;-72
2021/03/21 10:27:42;;;;;;;47.95;8.25;;;;;;;6.33;73.68;101618.31;6177845;28;20043;-74
2021/03/21 10:31:26;;;;;;;52.80;8.32;;;;;;;6.48;73.39;101630.16;6195580;28;20050;-75
2021/03/21 10:34:45;;;;;;;52.63;7.57;;;;;;;6.70;71.22;101635.75;6175459;28;20138;-72
2021/03/21 10:37:53;;;;;;;63.70;7.97;;;;;;;6.54;71.85;101636.13;6193547;28;20077;-74
2021/03/21 10:40:54;;;;;;;48.53;6.65;;;;;;;6.39;71.76;101633.81;6199345;28;20133;-75
2021/03/21 10:43:59;;;;;;;57.70;8.80;;;;;;;6.37;72.10;101634.78;6199999;28;20101;-75
2021/03/21 10:47:03;;;;;;;60.40;8.00;;;;;;;6.37;71.30;101653.03;6176878;28;20058;-75
2021/03/21 10:50:10;;;;;;;49.15;7.20;;;;;;;6.28;72.23;101656.72;6176058;28;20057;-74
2021/03/21 10:53:20;;;;;;;49.80;6.68;;;;;;;6.22;72.21;101662.91;6175396;28;20055;-74
2021/03/21 10:56:21;;;;;;;52.78;6.80;;;;;;;6.17;73.21;101646.47;6175339;28;20096;-74
2021/03/21 10:59:25;;;;;;;58.72;6.65;;;;;;;6.26;72.39;101648.88;6175512;28;20050;-73
2021/03/21 11:02:27;;;;;;;51.75;7.38;;;;;;;6.16;72.48;101641.28;6183422;28;20101;-75
2021/03/21 11:05:31;;;;;;;63.58;5.65;;;;;;;6.23;71.51;101648.13;6199602;28;20054;-75
2021/03/21 11:08:33;;;;;;;57.60;6.90;;;;;;;6.04;72.00;101640.66;6199800;28;20058;-76
2021/03/21 11:11:37;;;;;;;39.35;5.20;;;;;;;6.15;72.34;101645.66;6198475;28;20062;-74
2021/03/21 11:14:38;;;;;;;51.58;6.05;;;;;;;6.20;72.10;101645.56;6199888;28;20054;-75
2021/03/21 11:17:40;;;;;;;50.90;7.72;;;;;;;6.21;73.62;101648.13;6199338;28;20510;-75
2021/03/21 11:20:41;;;;;;;44.45;5.45;;;;;;;6.42;72.33;101633.78;6199469;28;20049;-76
2021/03/21 11:23:45;;;;;;;47.45;6.03;;;;;;;6.35;70.85;101638.25;6198779;28;20054;-74
2021/03/21 11:26:46;;;;;;;41.70;6.05;;;;;;;6.43;72.14;101630.25;6199180;28;20488;-74
2021/03/21 11:29:47;;;;;;;50.42;5.53;;;;;;;6.64;70.69;101636.78;6199325;28;20050;-74
2021/03/21 11:32:49;;;;;;;50.60;5.90;;;;;;;6.65;70.12;101638.47;6199040;28;20056;-75
2021/03/21 11:35:50;;;;;;;58.30;6.93;;;;;;;6.60;70.36;101637.72;6193532;28;20054;-75
2021/03/21 11:38:51;;;;;;;50.65;7.63;;;;;;;6.80;68.92;101635.50;6195847;28;20072;-75
2021/03/21 11:41:52;;;;;;;55.88;7.45;;;;;;;6.73;70.02;101638.31;6198849;28;20054;-72
2021/03/21 11:45:14;;;;;;;43.65;5.55;;;;;;;6.98;68.67;101631.59;6198784;28;20435;-75
2021/03/21 11:48:30;;;;;;;39.53;6.00;;;;;;;6.91;69.96;101647.47;6198575;28;20097;-71
2021/03/21 11:51:31;;;;;;;52.33;7.20;;;;;;;6.85;69.16;101643.22;6198503;28;20046;-72
2021/03/21 11:54:35;;;;;;;61.55;8.07;;;;;;;6.99;67.53;101669.03;6198951;28;20058;-74
2021/03/21 11:57:56;;;;;;;47.13;6.05;;;;;;;6.73;68.87;101652.22;6198590;28;20047;-70
2021/03/21 12:01:01;;;;;;;39.92;5.35;;;;;;;6.76;68.51;101646.91;6198607;28;20109;-72
2021/03/21 12:04:06;;;;;;;48.30;5.88;;;;;;;6.95;68.37;101646.47;6198370;28;20061;-71
2021/03/21 12:07:22;;;;;;;38.78;5.55;;;;;;;7.14;67.17;101631.25;6198271;28;20512;-71
2021/03/21 12:10:33;;;;;;;49.60;6.30;;;;;;;6.90;67.87;101632.69;6198130;28;20682;-71
2021/03/21 12:13:37;;;;;;;46.60;5.72;;;;;;;7.08;66.84;101643.53;6217490;23;20050;-68
2021/03/21 12:16:41;;;;;;;35.38;5.90;;;;;;;7.20;67.04;101637.16;6197769;28;20530;-68
2021/03/21 12:19:42;;;;;;;50.03;6.53;;;;;;;7.41;65.55;101635.78;6195274;28;20073;-67
2021/03/21 12:22:49;;;;;;;41.60;5.80;;;;;;;7.31;66.44;101636.88;6193046;28;20049;-68
2021/03/21 12:26:16;;;;;;;50.75;6.50;;;;;;;7.37;67.36;101632.38;6197979;28;20538;-67
2021/03/21 12:29:35;;;;;;;43.97;5.55;;;;;;;7.20;65.97;101631.06;6195291;28;20046;-68
2021/03/21 12:32:39;;;;;;;50.75;7.57;;;;;;;7.18;66.43;101633.75;6194948;28;20124;-68
2021/03/21 12:35:43;;;;;;;44.15;6.63;;;;;;;7.18;66.75;101630.28;6183801;28;20051;-68
2021/03/21 12:38:47;;;;;;;41.35;5.68;;;;;;;7.14;66.81;101624.25;6197926;28;20042;-69
2021/03/21 12:41:48;;;;;;;47.05;6.60;;;;;;;7.05;66.84;101627.09;6197537;28;20050;-67
2021/03/21 12:45:08;;;;;;;41.50;5.57;;;;;;;7.22;66.52;101624.03;6196779;28;20065;-68
2021/03/21 12:48:11;;;;;;;;;;;;;;;6.99;67.25;101620.25;6185402;28;20480;-68
2021/03/21 12:51:26;;;;;;;42.33;4.70;;;;;;;7.09;67.74;101623.50;6184466;28;19922;-68
2021/03/21 12:54:29;;;;;;;40.05;5.53;;;;;;;7.12;66.81;101620.81;6184677;28;20462;-68
2021/03/21 12:57:30;;;;;;;35.60;6.25;;;;;;;7.28;65.72;101616.06;6184728;28;20061;-69
2021/03/21 13:00:33;;;;;;;40.97;5.78;;;;;;;7.15;65.57;101622.50;6185019;28;20503;-69
2021/03/21 13:03:35;;;;;;;35.95;5.20;;;;;;;7.12;66.13;101620.81;6188942;28;20046;-69
2021/03/21 13:06:38;;;;;;;39.95;5.95;;;;;;;7.12;65.46;101623.41;6188129;28;20554;-69
2021/03/21 13:09:39;;;;;;;42.40;6.07;;;;;;;7.12;65.38;101632.13;6188882;28;20082;-69
2021/03/21 13:12:40;;;;;;;38.55;4.75;;;;;;;6.93;65.65;101643.91;6188590;28;20070;-70
2021/03/21 13:15:42;;;;;;;36.10;5.03;;;;;;;7.00;65.10;101649.88;6188149;28;20500;-69
2021/03/21 13:18:43;;;;;;;30.80;4.90;;;;;;;6.99;64.76;101633.31;6188048;28;20558;-68
2021/03/21 13:21:44;;;;;;;30.00;4.88;;;;;;;7.14;64.67;101647.78;6190896;28;20129;-70
2021/03/21 13:24:45;;;;;;;42.15;4.75;;;;;;;7.05;64.77;101641.03;6189279;28;20046;-70
2021/03/21 13:27:46;;;;;;;36.28;4.95;;;;;;;7.04;63.84;101636.69;6188818;28;20078;-70
2021/03/21 13:30:49;;;;;;;33.72;4.38;;;;;;;7.12;63.06;101639.97;6186233;28;20597;-70
2021/03/21 13:33:49;;;;;;;43.80;5.40;;;;;;;6.96;63.70;101636.00;6188767;28;20054;-71
2021/03/21 13:36:51;;;;;;;25.83;4.63;;;;;;;7.13;63.96;101635.63;6188152;28;20073;-70
2021/03/21 13:39:52;;;;;;;57.35;6.05;;;;;;;7.45;63.87;101644.38;6187581;28;20537;-71
2021/03/21 13:42:53;;;;;;;27.45;4.63;;;;;;;7.82;63.17;101639.88;6186357;28;20050;-71
2021/03/21 13:45:55;;;;;;;28.83;4.70;;;;;;;7.93;61.73;101644.81;6189468;28;20042;-70
2021/03/21 13:48:56;;;;;;;31.45;4.70;;;;;;;7.97;61.58;101641.22;6189278;28;20042;-70
2021/03/21 13:51:58;;;;;;;28.92;3.70;;;;;;;8.14;61.30;101635.50;6186569;28;20101;-71
2021/03/21 13:54:59;;;;;;;41.28;5.22;;;;;;;8.37;59.20;101647.97;6184047;28;20050;-71
2021/03/21 13:58:00;;;;;;;36.45;4.50;;;;;;;8.01;60.65;101644.63;6195840;28;20065;-70
2021/03/21 14:01:01;;;;;;;30.45;3.97;;;;;;;8.10;59.97;101652.19;6194723;28;20057;-71
2021/03/21 14:04:02;;;;;;;27.10;3.63;;;;;;;7.97;61.16;101651.69;6198399;28;20585;-70
2021/03/21 14:07:04;;;;;;;40.80;5.13;;;;;;;8.22;62.90;101656.22;6200886;28;20054;-70
2021/03/21 14:10:07;;;;;;;35.20;4.45;;;;;;;8.59;60.72;101654.28;6200800;28;20120;-71
2021/03/21 14:13:08;;;;;;;38.92;4.85;;;;;;;8.36;60.44;101654.97;6199250;28;20054;-71
2021/03/21 14:16:09;;;;;;;36.55;5.13;;;;;;;8.37;61.32;101663.66;6200937;28;20511;-71
2021/03/21 14:19:10;;;;;;;32.28;4.50;;;;;;;8.23;60.75;101673.66;6200481;28;20050;-72
2021/03/21 14:22:12;;;;;;;35.38;4.07;;;;;;;7.92;60.14;101673.66;6199776;28;20136;-71
2021/03/21 14:25:14;;;;;;;34.90;4.68;;;;;;;7.47;61.20;101672.22;6200751;28;20096;-71
2021/03/21 14:28:15;;;;;;;33.75;4.05;;;;;;;7.47;60.72;101668.75;6200290;28;20046;-71
2021/03/21 14:31:16;;;;;;;38.15;4.95;;;;;;;7.42;62.51;101665.38;6199562;28;20046;-70